Time;durP1;ratioP1;P1;durP2;ratioP2;P2;SDS_P1;SDS_P2;PMS_P1;PMS_P2;Temp;Humidity;BMP_temperature;BMP_pressure;BME280_temperature;BME280_humidity;BME280_pressure;Samples;Min_cycle;Max_cycle;Signal;HPM_P1;HPM_P2
2021/11/21 00:02:16;;;;;;;1.90;1.70;;;22.00;55.30;;;;;;5043171;28;20199;-80
2021/11/21 00:04:42;;;;;;;1.80;1.70;;;22.00;55.30;;;;;;5050268;28;20423;-80
2021/11/21 00:07:08;;;;;;;2.97;2.17;;;22.00;55.30;;;;;;5049627;28;20521;-80
2021/11/21 00:09:34;;;;;;;2.50;1.70;;;22.00;55.30;;;;;;5050426;28;20484;-80
2021/11/21 00:12:02;;;;;;;2.10;1.90;;;22.00;55.30;;;;;;5050737;28;20422;-80
2021/11/21 00:14:28;;;;;;;2.03;1.70;;;22.00;55.30;;;;;;5050214;28;20188;-79
2021/11/21 00:17:01;;;;;;;3.83;2.03;;;22.00;55.40;;;;;;5049907;28;20422;-79
2021/11/21 00:19:28;;;;;;;1.70;1.60;;;22.00;55.40;;;;;;5040856;28;20180;-79
2021/11/21 00:21:57;;;;;;;2.27;1.83;;;22.00;55.40;;;;;;5051159;28;20415;-81
2021/11/21 00:24:24;;;;;;;2.03;1.83;;;22.00;55.40;;;;;;5051323;28;20909;-81
2021/11/21 00:26:50;;;;;;;2.30;1.90;;;22.00;55.40;;;;;;5051269;28;20494;-81
2021/11/21 00:29:15;;;;;;;2.10;1.80;;;22.00;55.40;;;;;;5050887;28;20453;-80
2021/11/21 00:31:41;;;;;;;1.90;1.67;;;22.00;55.40;;;;;;5045346;28;20179;-80
2021/11/21 00:34:07;;;;;;;2.00;1.80;;;21.90;55.30;;;;;;5030330;28;20176;-80
2021/11/21 00:36:33;;;;;;;2.03;1.50;;;22.00;55.40;;;;;;5042429;28;20419;-78
2021/11/21 00:38:59;;;;;;;2.30;1.83;;;22.00;55.40;;;;;;5049092;28;20187;-78
2021/11/21 00:41:25;;;;;;;2.80;1.77;;;22.00;55.50;;;;;;5050662;28;20179;-77
2021/11/21 00:43:50;;;;;;;1.77;1.67;;;22.00;55.40;;;;;;5050111;28;20180;-77
2021/11/21 00:46:16;;;;;;;2.40;2.10;;;21.90;55.40;;;;;;5050614;28;20236;-78
2021/11/21 00:48:42;;;;;;;2.27;1.67;;;21.90;55.40;;;;;;5049278;28;20199;-78
2021/11/21 00:51:08;;;;;;;1.60;1.50;;;21.90;55.40;;;;;;5049681;28;20176;-77
2021/11/21 00:53:36;;;;;;;1.70;1.60;;;21.90;55.40;;;;;;5050221;28;20167;-78
2021/11/21 00:56:04;;;;;;;1.97;1.77;;;21.90;55.40;;;;;;5050362;28;20498;-78
2021/11/21 00:58:34;;;;;;;1.93;1.50;;;21.90;55.40;;;;;;5049596;28;20506;-78
2021/11/21 01:01:01;;;;;;;1.60;1.50;;;21.90;55.40;;;;;;5049610;28;20438;-78
2021/11/21 01:03:28;;;;;;;2.07;1.60;;;21.90;55.40;;;;;;5048532;28;20448;-77
2021/11/21 01:05:55;;;;;;;2.10;1.80;;;21.90;55.50;;;;;;5042480;28;20427;-77
2021/11/21 01:08:23;;;;;;;1.77;1.47;;;21.90;55.40;;;;;;5030551;28;20505;-78
2021/11/21 01:10:55;;;;;;;2.20;1.80;;;21.90;55.50;;;;;;5029129;28;20412;-78
2021/11/21 01:13:21;;;;;;;1.57;1.30;;;21.90;55.50;;;;;;5029956;28;20454;-78
2021/11/21 01:15:47;;;;;;;1.90;1.70;;;21.90;55.50;;;;;;5030578;28;20434;-78
2021/11/21 01:18:13;;;;;;;1.90;1.70;;;21.90;55.50;;;;;;5028779;28;20447;-78
2021/11/21 01:20:41;;;;;;;2.47;1.80;;;21.90;55.50;;;;;;5030366;28;20184;-78
2021/11/21 01:23:12;;;;;;;1.83;1.50;;;21.90;55.50;;;;;;5028678;28;20428;-77
2021/11/21 01:25:38;;;;;;;1.90;1.70;;;21.90;55.50;;;;;;5029805;28;20428;-77
2021/11/21 01:28:04;;;;;;;1.80;1.60;;;21.90;55.50;;;;;;5029688;28;20490;-77
2021/11/21 01:30:31;;;;;;;2.60;1.90;;;21.90;55.50;;;;;;5029388;28;20770;-77
2021/11/21 01:32:58;;;;;;;1.77;1.53;;;21.90;55.50;;;;;;5030086;28;20411;-77
2021/11/21 01:35:24;;;;;;;1.77;1.67;;;21.90;55.50;;;;;;5030346;28;20453;-77
2021/11/21 01:37:50;;;;;;;2.83;2.10;;;21.90;55.50;;;;;;5048372;28;20448;-77
2021/11/21 01:40:18;;;;;;;1.37;1.27;;;21.90;55.50;;;;;;5049089;28;20421;-78
2021/11/21 01:42:46;;;;;;;1.73;1.63;;;21.90;55.50;;;;;;5048088;28;20425;-77
2021/11/21 01:45:12;;;;;;;2.23;1.77;;;21.90;55.50;;;;;;5048132;28;20544;-78
2021/11/21 01:47:39;;;;;;;1.80;1.50;;;21.90;55.50;;;;;;5047897;28;20470;-78
2021/11/21 01:50:08;;;;;;;2.07;1.83;;;21.90;55.50;;;;;;5048207;28;20418;-78
2021/11/21 01:52:33;;;;;;;2.50;1.90;;;21.90;55.50;;;;;;5049085;28;20478;-78
2021/11/21 01:54:59;;;;;;;2.23;1.80;;;21.90;55.50;;;;;;5049353;28;20419;-77
2021/11/21 01:57:26;;;;;;;1.73;1.50;;;21.90;55.50;;;;;;5049156;28;20186;-78
2021/11/21 01:59:52;;;;;;;2.60;2.00;;;21.90;55.50;;;;;;5049314;28;20202;-78
2021/11/21 02:02:19;;;;;;;1.83;1.50;;;21.90;55.60;;;;;;5048954;28;20426;-78
2021/11/21 02:04:45;;;;;;;2.00;1.70;;;21.90;55.60;;;;;;5049203;28;20434;-78
2021/11/21 02:07:11;;;;;;;2.37;1.70;;;21.90;55.60;;;;;;5048020;28;20429;-77
2021/11/21 02:09:36;;;;;;;1.80;1.70;;;21.90;55.60;;;;;;5047565;28;20186;-78
2021/11/21 02:12:03;;;;;;;2.60;1.63;;;21.90;55.60;;;;;;5047759;28;20429;-77
2021/11/21 02:14:30;;;;;;;1.60;1.50;;;21.90;55.60;;;;;;5047840;28;20642;-77
2021/11/21 02:16:56;;;;;;;2.20;1.47;;;21.90;55.50;;;;;;5040258;28;20441;-78
2021/11/21 02:19:22;;;;;;;2.10;1.80;;;21.90;55.60;;;;;;5048792;28;20410;-77
2021/11/21 02:21:48;;;;;;;1.50;1.30;;;21.90;55.60;;;;;;5049216;28;20210;-78
2021/11/21 02:24:14;;;;;;;1.53;1.37;;;21.80;55.50;;;;;;5048423;28;20423;-78
2021/11/21 02:26:40;;;;;;;2.10;1.90;;;21.90;56.10;;;;;;5048092;28;20899;-77
2021/11/21 02:29:06;;;;;;;1.53;1.43;;;21.80;55.50;;;;;;5048885;28;20457;-77
2021/11/21 02:31:32;;;;;;;1.60;1.50;;;21.90;55.60;;;;;;5047741;28;20447;-77
2021/11/21 02:33:58;;;;;;;1.63;1.40;;;21.90;55.60;;;;;;5048053;28;20414;-78
2021/11/21 02:36:25;;;;;;;1.20;1.10;;;21.90;55.60;;;;;;5040136;28;20207;-77
2021/11/21 02:38:51;;;;;;;1.67;1.57;;;21.90;55.60;;;;;;5029072;28;20195;-77
2021/11/21 02:41:17;;;;;;;1.67;1.50;;;21.90;55.60;;;;;;5028275;28;20418;-78
2021/11/21 02:43:45;;;;;;;1.80;1.60;;;21.80;55.50;;;;;;5029090;28;20172;-78
2021/11/21 02:46:12;;;;;;;1.40;1.10;;;21.80;55.50;;;;;;5027643;28;20431;-78
2021/11/21 02:48:38;;;;;;;1.87;1.67;;;21.80;55.50;;;;;;5028396;28;20470;-78
2021/11/21 02:51:07;;;;;;;1.63;1.40;;;21.80;55.50;;;;;;5027795;28;20427;-78
2021/11/21 02:53:34;;;;;;;2.03;1.40;;;21.80;55.50;;;;;;5035247;28;20422;-78
2021/11/21 02:56:03;;;;;;;1.93;1.60;;;21.80;55.50;;;;;;5049490;28;20442;-78
2021/11/21 02:58:32;;;;;;;2.23;1.47;;;21.90;55.60;;;;;;5047505;28;20437;-78
2021/11/21 03:01:01;;;;;;;1.80;1.60;;;21.80;55.50;;;;;;5042986;28;20882;-78
2021/11/21 03:03:27;;;;;;;1.37;1.10;;;21.80;55.50;;;;;;5048059;28;20405;-78
2021/11/21 03:05:53;;;;;;;1.50;1.40;;;21.80;55.50;;;;;;5051751;28;20410;-78
2021/11/21 03:08:19;;;;;;;2.23;1.43;;;21.80;55.50;;;;;;5050659;28;20488;-78
2021/11/21 03:10:46;;;;;;;1.60;1.50;;;21.80;55.50;;;;;;5050888;28;20175;-78
2021/11/21 03:13:12;;;;;;;2.10;1.50;;;21.80;55.50;;;;;;5045567;28;20184;-78
2021/11/21 03:15:38;;;;;;;1.83;1.50;;;21.80;55.50;;;;;;5031284;28;20422;-78
2021/11/21 03:18:04;;;;;;;1.40;1.23;;;21.80;55.50;;;;;;5030329;28;20188;-78
2021/11/21 03:20:34;;;;;;;2.60;1.60;;;21.80;55.60;;;;;;5046557;28;20183;-78
2021/11/21 03:23:00;;;;;;;1.87;1.50;;;21.80;55.50;;;;;;5050458;28;20431;-78
2021/11/21 03:25:27;;;;;;;1.73;1.57;;;21.80;55.50;;;;;;5051740;28;20916;-78
2021/11/21 03:27:53;;;;;;;1.60;1.50;;;21.80;56.10;;;;;;5049941;28;20525;-76
2021/11/21 03:30:21;;;;;;;1.60;1.50;;;21.80;55.50;;;;;;5051401;28;20513;-78
2021/11/21 03:32:48;;;;;;;1.40;1.30;;;21.80;55.50;;;;;;5050530;28;20418;-77
2021/11/21 03:35:17;;;;;;;2.07;1.23;;;21.80;55.60;;;;;;5035177;28;20419;-77
2021/11/21 03:37:43;;;;;;;1.83;1.70;;;21.80;55.50;;;;;;5047180;28;20434;-78
2021/11/21 03:40:12;;;;;;;1.90;1.47;;;21.80;55.60;;;;;;5052236;28;20425;-77
2021/11/21 03:42:39;;;;;;;1.30;1.20;;;21.80;55.50;;;;;;5052491;28;20501;-78
2021/11/21 03:45:07;;;;;;;1.60;1.40;;;21.80;55.60;;;;;;5044204;28;20783;-77
2021/11/21 03:47:33;;;;;;;1.57;1.37;;;21.80;55.60;;;;;;5064510;28;20466;-77
2021/11/21 03:49:58;;;;;;;2.03;1.80;;;21.80;55.60;;;;;;5051491;28;20415;-77
2021/11/21 03:52:24;;;;;;;1.80;1.40;;;21.80;55.60;;;;;;5047543;28;20188;-78
2021/11/21 03:54:50;;;;;;;1.80;1.40;;;21.80;55.60;;;;;;5043342;28;20180;-78
2021/11/21 03:57:16;;;;;;;1.63;1.30;;;21.80;55.60;;;;;;5051364;28;20210;-78
2021/11/21 03:59:42;;;;;;;1.50;1.37;;;21.80;55.60;;;;;;5048468;28;20195;-78
2021/11/21 04:02:26;;;;;;;1.70;1.60;;;21.80;55.60;;;;;;5046391;28;20425;-78
2021/11/21 04:04:52;;;;;;;1.30;1.20;;;21.80;55.50;;;;;;5048105;28;20201;-78
2021/11/21 04:07:18;;;;;;;1.57;1.40;;;21.80;55.60;;;;;;5047112;28;20921;-77
2021/11/21 04:09:43;;;;;;;1.60;1.40;;;21.80;55.60;;;;;;5044226;28;20242;-77
2021/11/21 04:12:09;;;;;;;1.90;1.47;;;21.80;55.60;;;;;;5045842;28;20198;-77
2021/11/21 04:14:35;;;;;;;1.47;1.23;;;21.80;55.60;;;;;;5064471;28;20172;-77
2021/11/21 04:17:01;;;;;;;1.53;1.30;;;21.80;55.60;;;;;;5046778;28;20534;-77
2021/11/21 04:19:27;;;;;;;1.73;1.47;;;21.80;55.60;;;;;;5047449;28;20188;-77
2021/11/21 04:21:53;;;;;;;2.73;1.60;;;21.80;55.60;;;;;;5047456;28;20425;-79
2021/11/21 04:24:19;;;;;;;1.43;1.30;;;21.80;55.60;;;;;;5047658;28;20239;-78
2021/11/21 04:26:46;;;;;;;1.37;1.27;;;21.80;55.60;;;;;;5048608;28;20172;-78
2021/11/21 04:29:12;;;;;;;1.60;1.40;;;21.80;55.60;;;;;;5046762;28;20214;-77
2021/11/21 04:31:38;;;;;;;1.93;1.50;;;21.80;55.60;;;;;;5048947;28;20434;-78
2021/11/21 04:34:05;;;;;;;1.43;1.30;;;21.80;55.60;;;;;;5047140;28;20799;-77
2021/11/21 04:36:31;;;;;;;1.50;1.30;;;21.80;55.60;;;;;;5048425;28;20486;-78
2021/11/21 04:39:24;;;;;;;2.00;1.40;;;21.80;55.60;;;;;;5049232;28;20419;-78
2021/11/21 04:41:50;;;;;;;1.40;1.23;;;21.80;55.60;;;;;;5046464;28;20981;-78
2021/11/21 04:44:15;;;;;;;1.87;1.60;;;21.80;55.60;;;;;;5047924;28;20431;-78
2021/11/21 04:46:42;;;;;;;1.40;1.30;;;21.80;55.60;;;;;;5049265;28;20183;-77
2021/11/21 04:49:07;;;;;;;1.27;1.17;;;21.80;55.70;;;;;;5049211;28;20462;-77
2021/11/21 04:51:33;;;;;;;1.40;1.30;;;21.80;56.20;;;;;;5048297;28;20402;-77
2021/11/21 04:54:02;;;;;;;1.20;1.10;;;21.80;55.60;;;;;;5047686;28;20180;-77
2021/11/21 04:56:27;;;;;;;2.70;1.33;;;21.80;55.60;;;;;;5050131;28;20198;-77
2021/11/21 04:58:53;;;;;;;1.60;1.17;;;21.80;55.60;;;;;;5048054;28;20422;-78
2021/11/21 05:01:20;;;;;;;1.93;1.43;;;21.80;55.70;;;;;;5046719;28;20204;-78
2021/11/21 05:03:45;;;;;;;1.30;1.10;;;21.80;55.60;;;;;;5046279;28;20195;-78
2021/11/21 05:06:11;;;;;;;1.73;1.40;;;21.80;55.70;;;;;;5045665;28;20410;-77
2021/11/21 05:08:37;;;;;;;1.83;1.20;;;21.70;55.60;;;;;;5045820;28;20199;-77
2021/11/21 05:11:03;;;;;;;1.53;1.10;;;21.70;55.60;;;;;;5045717;28;20179;-77
2021/11/21 05:13:29;;;;;;;1.60;1.40;;;21.70;55.60;;;;;;5046484;28;20498;-77
2021/11/21 05:15:55;;;;;;;1.50;1.30;;;21.70;55.70;;;;;;5046364;28;20186;-77
2021/11/21 05:18:21;;;;;;;1.73;1.23;;;21.70;55.60;;;;;;5046045;28;20184;-77
2021/11/21 05:20:47;;;;;;;1.27;1.17;;;21.70;55.60;;;;;;5043779;28;20454;-78
2021/11/21 05:23:12;;;;;;;1.30;1.20;;;21.70;55.70;;;;;;5057984;28;20180;-77
2021/11/21 05:25:38;;;;;;;1.47;1.37;;;21.70;55.60;;;;;;5047471;28;20172;-77
2021/11/21 05:28:04;;;;;;;1.53;1.27;;;21.70;55.60;;;;;;5047534;28;20195;-76
2021/11/21 05:30:30;;;;;;;1.70;1.47;;;21.70;55.60;;;;;;5047845;28;20179;-77
2021/11/21 05:32:56;;;;;;;1.33;1.20;;;21.70;55.60;;;;;;5048672;28;20175;-76
2021/11/21 05:35:22;;;;;;;1.40;1.20;;;21.70;55.60;;;;;;5046535;28;20191;-77
2021/11/21 05:37:49;;;;;;;2.20;1.53;;;21.70;55.60;;;;;;5038438;28;20419;-77
2021/11/21 05:40:15;;;;;;;1.57;1.30;;;21.70;55.60;;;;;;5046036;28;20414;-77
2021/11/21 05:42:59;;;;;;;2.20;1.27;;;21.70;55.60;;;;;;5050823;28;20418;-77
2021/11/21 05:45:25;;;;;;;1.50;1.33;;;21.80;55.60;;;;;;5047365;28;20430;-76
2021/11/21 05:47:51;;;;;;;1.47;1.37;;;21.80;55.70;;;;;;5049602;28;20461;-77
2021/11/21 05:50:17;;;;;;;2.30;1.60;;;21.70;55.60;;;;;;5050128;28;20418;-77
2021/11/21 05:52:48;;;;;;;1.73;1.43;;;21.80;55.70;;;;;;5047229;28;20437;-77
2021/11/21 05:55:16;;;;;;;2.40;1.10;;;21.80;55.60;;;;;;5049308;28;20250;-77
2021/11/21 05:57:42;;;;;;;1.30;1.20;;;21.80;55.60;;;;;;5047637;28;20893;-77
2021/11/21 06:00:11;;;;;;;1.53;1.10;;;21.80;55.60;;;;;;5046135;28;20477;-78
2021/11/21 06:02:37;;;;;;;1.57;1.40;;;21.80;55.60;;;;;;5044997;28;20780;-77
2021/11/21 06:05:04;;;;;;;1.53;1.30;;;21.80;55.50;;;;;;5046123;28;20457;-77
2021/11/21 06:07:30;;;;;;;1.23;1.13;;;21.80;55.60;;;;;;5044800;28;20422;-78
2021/11/21 06:09:55;;;;;;;1.20;1.10;;;21.80;55.50;;;;;;5045685;28;20502;-77
2021/11/21 06:12:21;;;;;;;1.10;0.90;;;21.80;55.50;;;;;;5043626;28;20241;-77
2021/11/21 06:14:47;;;;;;;1.40;1.23;;;21.80;55.50;;;;;;5045512;28;20201;-78
2021/11/21 06:17:12;;;;;;;1.20;1.10;;;21.80;55.50;;;;;;5046072;28;20243;-78
2021/11/21 06:19:39;;;;;;;1.30;1.17;;;21.80;55.50;;;;;;5045741;28;20187;-78
2021/11/21 06:22:06;;;;;;;1.30;1.03;;;21.90;55.50;;;;;;5042104;28;20191;-78
2021/11/21 06:24:32;;;;;;;1.40;1.10;;;21.80;55.50;;;;;;5044432;28;20415;-78
2021/11/21 06:26:59;;;;;;;1.60;1.00;;;21.80;55.40;;;;;;5045449;28;20417;-78
2021/11/21 06:29:24;;;;;;;1.40;1.17;;;21.90;55.50;;;;;;5045622;28;20458;-79
2021/11/21 06:31:51;;;;;;;1.33;1.23;;;21.90;55.50;;;;;;5046312;28;20971;-79
2021/11/21 06:34:18;;;;;;;1.27;1.17;;;21.90;55.50;;;;;;5043279;28;20181;-79
2021/11/21 06:36:47;;;;;;;1.90;1.33;;;21.90;55.50;;;;;;5044076;28;20426;-78
2021/11/21 06:39:13;;;;;;;1.67;1.57;;;21.90;55.50;;;;;;5049968;28;20410;-78
2021/11/21 06:41:39;;;;;;;2.00;1.20;;;21.90;55.50;;;;;;5054988;28;20413;-78
2021/11/21 06:44:06;;;;;;;1.30;1.07;;;21.90;55.50;;;;;;5051049;28;20913;-79
2021/11/21 06:46:33;;;;;;;1.67;1.33;;;21.90;55.50;;;;;;5050978;28;20186;-78
2021/11/21 06:49:00;;;;;;;1.80;1.50;;;21.90;55.50;;;;;;5053979;28;20465;-79
2021/11/21 06:51:27;;;;;;;1.40;1.10;;;21.90;55.50;;;;;;5051809;28;20414;-79
2021/11/21 06:53:53;;;;;;;1.93;1.70;;;21.90;55.50;;;;;;5052262;28;20414;-79
2021/11/21 06:56:19;;;;;;;1.73;1.33;;;21.90;55.50;;;;;;5053171;28;20419;-78
2021/11/21 06:58:46;;;;;;;1.23;1.07;;;21.80;55.40;;;;;;5051477;28;20466;-78
2021/11/21 07:01:12;;;;;;;1.50;1.40;;;21.90;55.50;;;;;;5049468;28;20191;-79
2021/11/21 07:03:38;;;;;;;1.77;1.50;;;21.90;55.50;;;;;;5049946;28;20445;-79
2021/11/21 07:06:04;;;;;;;1.63;1.00;;;21.90;55.50;;;;;;5049230;28;20418;-79
2021/11/21 07:08:29;;;;;;;1.40;1.07;;;21.90;55.50;;;;;;5050707;28;20259;-79
2021/11/21 07:10:55;;;;;;;2.17;1.20;;;21.90;55.50;;;;;;5049315;28;20179;-78
2021/11/21 07:13:21;;;;;;;1.97;1.40;;;21.90;55.70;;;;;;5050593;28;20206;-78
2021/11/21 07:15:48;;;;;;;1.30;1.20;;;21.90;55.60;;;;;;5049001;28;20182;-78
2021/11/21 07:18:14;;;;;;;1.00;0.90;;;21.90;55.50;;;;;;5050321;28;20206;-79
2021/11/21 07:20:40;;;;;;;1.27;1.00;;;21.90;55.50;;;;;;5049618;28;20450;-79
2021/11/21 07:23:11;;;;;;;1.80;1.57;;;21.90;55.50;;;;;;5050058;28;20211;-78
2021/11/21 07:25:37;;;;;;;1.37;1.20;;;21.90;55.50;;;;;;5050288;28;20402;-78
2021/11/21 07:28:03;;;;;;;1.23;1.10;;;21.90;55.50;;;;;;5049122;28;20469;-78
2021/11/21 07:30:29;;;;;;;1.47;1.00;;;21.90;55.50;;;;;;5049844;28;20206;-79
2021/11/21 07:32:55;;;;;;;1.90;1.23;;;21.90;55.50;;;;;;5051448;28;20420;-78
2021/11/21 07:35:22;;;;;;;1.30;1.10;;;21.90;55.40;;;;;;5050361;28;20426;-78
2021/11/21 07:37:49;;;;;;;1.30;1.20;;;21.90;55.40;;;;;;5050778;28;20490;-78
2021/11/21 07:40:16;;;;;;;1.10;0.97;;;21.90;55.40;;;;;;5052189;28;20415;-78
2021/11/21 07:42:46;;;;;;;1.77;1.10;;;21.90;55.40;;;;;;5052643;28;20410;-78
2021/11/21 07:45:13;;;;;;;1.13;0.90;;;22.00;55.50;;;;;;5050420;28;20450;-78
2021/11/21 07:47:42;;;;;;;1.63;1.27;;;22.00;55.50;;;;;;5053902;28;20470;-79
2021/11/21 07:50:09;;;;;;;1.20;1.10;;;22.00;55.50;;;;;;5051885;28;20465;-79
2021/11/21 07:52:34;;;;;;;1.20;1.10;;;21.90;55.40;;;;;;5051169;28;20403;-79
2021/11/21 07:55:00;;;;;;;1.30;1.10;;;21.90;55.40;;;;;;5053182;28;20407;-79
2021/11/21 07:57:26;;;;;;;1.80;1.30;;;21.90;55.40;;;;;;5051339;28;20191;-79
2021/11/21 07:59:52;;;;;;;1.40;1.10;;;21.90;55.40;;;;;;5048856;28;20196;-79
2021/11/21 08:02:18;;;;;;;1.33;1.10;;;22.00;55.50;;;;;;5050123;28;20630;-78
2021/11/21 08:04:43;;;;;;;1.23;1.07;;;21.90;55.50;;;;;;5048599;28;20184;-78
2021/11/21 08:07:09;;;;;;;1.30;1.10;;;22.00;55.50;;;;;;5050148;28;20174;-78
2021/11/21 08:09:36;;;;;;;1.37;1.27;;;22.00;56.00;;;;;;5049028;28;20286;-79
2021/11/21 08:12:02;;;;;;;2.33;1.27;;;22.00;55.50;;;;;;5050061;28;20418;-79
2021/11/21 08:14:28;;;;;;;1.57;1.37;;;22.00;55.50;;;;;;5049194;28;20445;-79
2021/11/21 08:16:54;;;;;;;1.20;1.03;;;21.90;55.40;;;;;;5031853;28;20458;-78
2021/11/21 08:19:20;;;;;;;1.30;1.17;;;21.90;55.40;;;;;;5029193;28;20187;-78
2021/11/21 08:21:46;;;;;;;1.10;1.00;;;21.90;55.40;;;;;;5030586;28;20177;-78
2021/11/21 08:24:12;;;;;;;1.97;1.20;;;21.90;55.40;;;;;;5029657;28;20180;-79
2021/11/21 08:26:38;;;;;;;2.63;1.40;;;21.90;55.40;;;;;;5029828;28;21008;-77
2021/11/21 08:29:04;;;;;;;1.13;0.90;;;21.90;55.40;;;;;;5029272;28;20462;-78
2021/11/21 08:31:31;;;;;;;4.53;1.40;;;21.90;55.40;;;;;;5031039;28;20414;-78
2021/11/21 08:33:57;;;;;;;1.50;1.40;;;21.90;55.50;;;;;;5045459;28;20426;-78
2021/11/21 08:36:23;;;;;;;1.17;1.03;;;21.90;55.50;;;;;;5049938;28;20782;-78
2021/11/21 08:38:49;;;;;;;1.40;1.30;;;21.90;55.50;;;;;;5051774;28;20412;-79
2021/11/21 08:41:15;;;;;;;2.60;1.63;;;21.90;55.50;;;;;;5052722;28;20418;-79
2021/11/21 08:43:41;;;;;;;2.37;1.70;;;21.90;55.50;;;;;;5052236;28;20478;-79
2021/11/21 08:46:07;;;;;;;1.80;1.50;;;21.90;55.50;;;;;;5051092;28;20426;-79
2021/11/21 08:48:33;;;;;;;1.53;1.17;;;21.90;55.50;;;;;;5052068;28;20473;-78
2021/11/21 08:50:59;;;;;;;1.30;1.20;;;21.90;55.50;;;;;;5050049;28;20179;-79
2021/11/21 08:53:25;;;;;;;1.57;1.40;;;21.90;55.50;;;;;;5051157;28;20414;-79
2021/11/21 08:55:51;;;;;;;2.07;1.50;;;21.90;55.50;;;;;;5052100;28;20827;-79
2021/11/21 08:58:17;;;;;;;1.97;1.40;;;21.90;55.50;;;;;;5050056;28;20184;-78
2021/11/21 09:00:46;;;;;;;1.73;1.43;;;21.90;55.50;;;;;;5048298;28;20453;-79
2021/11/21 09:03:11;;;;;;;1.60;1.50;;;21.90;55.50;;;;;;5048754;28;20191;-79
2021/11/21 09:05:37;;;;;;;2.87;1.40;;;21.90;55.50;;;;;;5048301;28;20426;-79
2021/11/21 09:08:03;;;;;;;1.77;1.50;;;21.90;55.50;;;;;;5047985;28;20210;-79
2021/11/21 09:10:29;;;;;;;1.97;1.57;;;21.90;55.50;;;;;;5047872;28;20176;-79
2021/11/21 09:12:55;;;;;;;1.93;1.40;;;21.90;55.50;;;;;;5047791;28;20472;-79
2021/11/21 09:15:21;;;;;;;1.70;1.50;;;22.00;55.60;;;;;;5047977;28;20180;-79
2021/11/21 09:17:51;;;;;;;2.60;1.70;;;21.90;55.50;;;;;;5032034;28;20194;-79
2021/11/21 09:20:18;;;;;;;1.60;1.00;;;22.00;55.50;;;;;;5040986;28;20459;-78
2021/11/21 09:22:43;;;;;;;1.77;1.13;;;22.00;55.50;;;;;;5043500;28;20432;-78
2021/11/21 09:25:10;;;;;;;2.23;1.50;;;21.90;55.40;;;;;;5049613;28;20454;-78
2021/11/21 09:27:36;;;;;;;1.60;1.50;;;22.00;55.60;;;;;;5050091;28;20175;-78
2021/11/21 09:30:07;;;;;;;1.97;1.40;;;22.00;55.50;;;;;;5033373;28;20446;-78
2021/11/21 09:32:34;;;;;;;1.33;1.10;;;22.00;55.50;;;;;;5049891;28;20422;-78
2021/11/21 09:35:01;;;;;;;1.77;1.47;;;22.00;55.50;;;;;;5049323;28;20411;-79
2021/11/21 09:37:27;;;;;;;2.03;1.57;;;22.00;55.50;;;;;;5049850;28;20766;-78
2021/11/21 09:39:54;;;;;;;1.97;1.50;;;22.00;55.50;;;;;;5049863;28;20418;-79
2021/11/21 09:42:19;;;;;;;1.10;1.00;;;22.00;55.50;;;;;;5050728;28;20421;-78
2021/11/21 09:44:45;;;;;;;1.50;1.40;;;22.00;55.50;;;;;;5050725;28;20395;-78
2021/11/21 09:47:14;;;;;;;2.43;1.63;;;22.00;56.10;;;;;;5050153;28;20206;-78
2021/11/21 09:49:41;;;;;;;1.60;1.30;;;22.00;55.50;;;;;;5048057;28;20203;-78
2021/11/21 09:52:07;;;;;;;1.60;1.40;;;22.00;55.50;;;;;;5048630;28;20416;-78
2021/11/21 09:54:33;;;;;;;3.43;2.27;;;22.00;55.50;;;;;;5048664;28;20525;-79
2021/11/21 09:56:59;;;;;;;2.47;1.80;;;22.00;55.50;;;;;;5049239;28;20406;-78
2021/11/21 09:59:56;;;;;;;2.80;1.67;;;22.00;55.50;;;;;;5049300;28;20243;-78
2021/11/21 10:02:28;;;;;;;2.87;2.10;;;22.00;55.50;;;;;;5048674;28;20187;-78
2021/11/21 10:04:54;;;;;;;4.20;2.00;;;22.00;55.50;;;;;;5049051;28;20395;-78
2021/11/21 10:07:34;;;;;;;2.77;2.00;;;22.00;55.50;;;;;;5047921;28;20468;-78
2021/11/21 10:10:03;;;;;;;2.60;1.77;;;21.90;55.40;;;;;;5048388;28;20191;-78
2021/11/21 10:12:41;;;;;;;2.57;2.37;;;21.90;55.50;;;;;;5048377;28;20435;-79
2021/11/21 10:15:09;;;;;;;3.40;2.57;;;22.00;55.50;;;;;;5051545;28;20410;-79
2021/11/21 10:17:38;;;;;;;3.50;1.90;;;21.90;55.40;;;;;;5045193;28;20888;-78
2021/11/21 10:20:19;;;;;;;3.13;2.30;;;21.90;55.40;;;;;;5051052;28;20425;-78
2021/11/21 10:22:51;;;;;;;3.17;2.30;;;21.90;55.40;;;;;;5046744;28;20473;-78
2021/11/21 10:25:43;;;;;;;4.90;2.93;;;21.90;55.40;;;;;;5051358;28;20410;-78
2021/11/21 10:28:13;;;;;;;6.03;3.33;;;21.90;55.40;;;;;;5051868;28;20509;-78
2021/11/21 10:31:05;;;;;;;4.53;3.37;;;21.90;55.50;;;;;;5050619;28;20430;-78
2021/11/21 10:33:34;;;;;;;3.20;2.90;;;21.90;55.40;;;;;;5050890;28;20415;-78
2021/11/21 10:36:02;;;;;;;6.33;3.60;;;21.90;55.40;;;;;;5050818;28;20422;-78
2021/11/21 10:38:37;;;;;;;6.30;3.70;;;21.90;55.40;;;;;;5050551;28;20407;-78
2021/11/21 10:41:09;;;;;;;11.83;4.37;;;21.90;55.40;;;;;;5067880;28;20417;-78
2021/11/21 10:43:47;;;;;;;7.50;4.37;;;21.90;55.40;;;;;;5052130;28;20479;-78
2021/11/21 10:46:34;;;;;;;6.77;4.47;;;21.90;55.40;;;;;;5048179;28;20435;-79
2021/11/21 10:49:20;;;;;;;4.80;3.20;;;21.90;55.40;;;;;;5047787;28;20454;-78
2021/11/21 10:52:02;;;;;;;3.60;3.00;;;21.90;55.40;;;;;;5046610;28;20520;-78
2021/11/21 10:54:33;;;;;;;4.63;2.80;;;21.90;55.40;;;;;;5051178;28;20410;-78
2021/11/21 10:57:03;;;;;;;4.33;3.30;;;21.90;55.50;;;;;;5051326;28;20422;-78
2021/11/21 10:59:37;;;;;;;7.97;3.93;;;21.90;55.40;;;;;;5050713;28;20444;-78
2021/11/21 11:02:19;;;;;;;4.80;3.60;;;21.90;55.40;;;;;;5048001;28;20441;-78
2021/11/21 11:05:17;;;;;;;5.60;4.17;;;21.90;55.40;;;;;;5058685;28;20429;-78
2021/11/21 11:07:43;;;;;;;7.00;4.20;;;21.90;55.40;;;;;;5045504;28;20508;-78
2021/11/21 11:10:18;;;;;;;8.30;4.10;;;21.90;55.40;;;;;;5052125;28;20422;-78
2021/11/21 11:12:58;;;;;;;6.67;3.80;;;21.90;55.30;;;;;;5052198;28;20182;-78
2021/11/21 11:15:25;;;;;;;7.37;5.33;;;21.90;55.30;;;;;;5051605;28;20777;-78
2021/11/21 11:17:51;;;;;;;6.57;4.10;;;21.90;55.30;;;;;;5052033;28;20418;-78
2021/11/21 11:20:21;;;;;;;8.40;4.87;;;21.90;55.90;;;;;;5051396;28;20419;-78
2021/11/21 11:22:48;;;;;;;10.30;4.73;;;21.90;55.30;;;;;;5050434;28;20431;-78
2021/11/21 11:25:28;;;;;;;6.70;4.37;;;21.90;55.30;;;;;;5049923;28;20419;-78
2021/11/21 11:28:07;;;;;;;7.03;4.10;;;21.90;55.20;;;;;;5046482;28;20445;-78
2021/11/21 11:30:35;;;;;;;7.20;5.13;;;21.90;55.20;;;;;;5049768;28;20422;-78
2021/11/21 11:33:16;;;;;;;6.70;5.00;;;21.90;55.30;;;;;;5050455;28;20414;-78
2021/11/21 11:35:53;;;;;;;7.63;4.90;;;21.90;55.20;;;;;;5050492;28;20423;-78
2021/11/21 11:38:31;;;;;;;8.43;4.03;;;21.90;55.20;;;;;;5048968;28;20438;-78
2021/11/21 11:41:01;;;;;;;8.37;4.60;;;21.90;55.20;;;;;;5050521;28;20443;-78
2021/11/21 11:43:39;;;;;;;5.90;4.40;;;21.90;55.20;;;;;;5050063;28;20406;-78
2021/11/21 11:46:14;;;;;;;7.80;4.47;;;21.90;55.20;;;;;;5043495;28;20427;-78
2021/11/21 11:48:46;;;;;;;6.73;5.20;;;21.80;55.10;;;;;;5048870;28;20473;-78
2021/11/21 11:51:34;;;;;;;8.03;4.10;;;21.90;55.20;;;;;;5051059;28;20422;-78
2021/11/21 11:54:11;;;;;;;7.70;4.43;;;21.90;55.20;;;;;;5046056;28;20808;-79
2021/11/21 11:56:59;;;;;;;6.43;4.57;;;21.90;55.20;;;;;;5049083;28;20410;-78
2021/11/21 11:59:36;;;;;;;12.13;4.70;;;21.90;55.20;;;;;;5051269;28;20421;-79
2021/11/21 12:02:31;;;;;;;5.00;4.27;;;21.90;55.30;;;;;;5057160;28;20421;-79
2021/11/21 12:05:03;;;;;;;4.37;3.47;;;21.90;55.30;;;;;;5050998;28;20441;-81
2021/11/21 12:07:33;;;;;;;7.07;4.30;;;21.90;55.30;;;;;;5052121;28;20407;-79
2021/11/21 12:10:03;;;;;;;6.50;3.43;;;21.80;55.20;;;;;;5045767;28;20414;-79
2021/11/21 12:13:09;;;;;;;5.53;3.30;;;21.90;55.30;;;;;;5047042;28;20470;-80
2021/11/21 12:15:44;;;;;;;4.20;3.80;;;21.90;55.30;;;;;;5049752;28;20501;-79
2021/11/21 12:18:10;;;;;;;6.83;4.00;;;21.90;55.30;;;;;;5050592;28;20438;-78
2021/11/21 12:20:55;;;;;;;5.27;3.33;;;21.90;55.30;;;;;;5050191;28;20411;-79
2021/11/21 12:23:42;;;;;;;5.73;3.50;;;21.90;55.30;;;;;;5051125;28;20414;-78
2021/11/21 12:26:27;;;;;;;10.00;3.93;;;22.00;55.30;;;;;;5047627;28;20484;-80
2021/11/21 12:29:26;;;;;;;5.60;3.53;;;21.90;55.20;;;;;;5050504;28;20460;-79
2021/11/21 12:31:54;;;;;;;4.30;3.77;;;22.00;55.30;;;;;;5049832;28;20407;-78
2021/11/21 12:34:32;;;;;;;5.60;3.20;;;21.90;55.30;;;;;;5048222;28;20418;-79
2021/11/21 12:37:22;;;;;;;4.87;3.17;;;22.00;55.30;;;;;;5042005;28;20425;-78
2021/11/21 12:40:20;;;;;;;5.70;3.70;;;22.00;55.20;;;;;;5048853;28;20486;-78
2021/11/21 12:42:54;;;;;;;5.10;3.67;;;22.00;55.20;;;;;;5043259;28;20433;-78
2021/11/21 12:45:23;;;;;;;6.10;3.70;;;22.00;55.30;;;;;;5051330;28;20418;-79
2021/11/21 12:47:57;;;;;;;4.90;3.43;;;21.90;55.20;;;;;;5050403;28;20462;-79
2021/11/21 12:50:34;;;;;;;6.00;3.27;;;22.00;55.30;;;;;;5050071;28;20422;-79
2021/11/21 12:53:14;;;;;;;4.37;2.90;;;22.00;55.20;;;;;;5041615;28;20500;-79
2021/11/21 12:55:45;;;;;;;3.20;2.80;;;22.00;55.20;;;;;;5047871;28;20828;-79